Time;durP1;ratioP1;P1;durP2;ratioP2;P2;SDS_P1;SDS_P2;PMS_P1;PMS_P2;Temp;Humidity;BMP_temperature;BMP_pressure;BME280_temperature;BME280_humidity;BME280_pressure;Samples;Min_cycle;Max_cycle;Signal;HPM_P1;HPM_P2
2021/07/26 00:02:03;;;;;;;9.48;7.25;;;;;;;20.12;70.91;98204.53;5024662;28;20041;-65
2021/07/26 00:04:29;;;;;;;9.52;6.45;;;;;;;20.07;70.96;98201.41;5026291;28;20028;-65
2021/07/26 00:06:55;;;;;;;7.25;6.60;;;;;;;20.06;71.26;98195.38;5031404;28;20049;-65
2021/07/26 00:09:20;;;;;;;7.95;6.72;;;;;;;19.97;71.55;98195.97;5029372;28;20052;-65
2021/07/26 00:11:45;;;;;;;8.35;7.65;;;;;;;19.97;72.37;98200.31;5027091;28;20040;-65
2021/07/26 00:14:11;;;;;;;9.23;7.30;;;;;;;19.90;72.61;98197.25;5026778;28;20025;-65
2021/07/26 00:16:36;;;;;;;7.93;7.28;;;;;;;19.82;72.96;98206.47;5026116;28;20125;-65
2021/07/26 00:19:01;;;;;;;7.30;6.43;;;;;;;19.74;73.27;98212.16;5026718;28;20025;-65
2021/07/26 00:21:27;;;;;;;7.70;7.10;;;;;;;19.65;73.80;98211.94;5026958;28;20152;-65
2021/07/26 00:23:52;;;;;;;8.05;7.25;;;;;;;19.60;74.52;98201.81;5028438;28;20040;-65
2021/07/26 00:26:18;;;;;;;9.02;8.23;;;;;;;19.57;74.60;98207.19;5023765;28;20035;-64
2021/07/26 00:28:43;;;;;;;8.30;7.47;;;;;;;19.52;74.81;98209.22;5028707;28;20033;-64
2021/07/26 00:31:08;;;;;;;8.32;7.53;;;;;;;19.45;75.01;98210.53;5026976;28;20033;-64
2021/07/26 00:34:10;;;;;;;9.25;8.25;;;;;;;19.49;75.39;98204.22;5028325;28;20119;-64
2021/07/26 00:36:53;;;;;;;10.07;7.45;;;;;;;19.47;75.51;98206.94;5029328;28;20041;-64
2021/07/26 00:39:23;;;;;;;8.18;7.38;;;;;;;19.39;76.24;98211.72;5034580;28;20116;-65
2021/07/26 00:41:49;;;;;;;9.73;7.75;;;;;;;19.29;77.04;98215.81;5032681;28;20022;-65
2021/07/26 00:44:16;;;;;;;8.93;8.13;;;;;;;19.35;76.42;98210.22;5029766;28;20044;-65
2021/07/26 00:46:43;;;;;;;8.43;7.72;;;;;;;19.49;75.87;98201.63;5029818;28;20021;-65
2021/07/26 00:49:10;;;;;;;8.57;7.82;;;;;;;19.51;75.30;98207.56;5031818;28;20042;-65
2021/07/26 00:51:38;;;;;;;9.23;8.40;;;;;;;19.47;75.72;98201.75;5030822;28;20037;-65
2021/07/26 00:54:04;;;;;;;8.27;7.47;;;;;;;19.45;75.99;98207.94;5032378;28;20025;-65
2021/07/26 00:56:29;;;;;;;9.57;7.18;;;;;;;19.57;74.61;98207.19;5030123;28;20036;-65
2021/07/26 00:58:56;;;;;;;9.13;8.30;;;;;;;19.54;75.00;98210.81;5032755;28;20029;-65
2021/07/26 01:01:21;;;;;;;8.75;7.95;;;;;;;19.44;74.90;98211.47;5031325;28;20033;-65
2021/07/26 01:03:47;;;;;;;8.35;7.60;;;;;;;19.43;74.84;98215.84;5032372;28;20038;-64
2021/07/26 01:06:13;;;;;;;8.88;8.07;;;;;;;19.37;75.21;98207.53;5030645;28;20021;-65
2021/07/26 01:08:39;;;;;;;8.32;7.43;;;;;;;19.38;75.03;98206.63;5031201;28;20037;-65
2021/07/26 01:11:05;;;;;;;8.32;6.82;;;;;;;19.42;74.87;98205.50;5033538;28;20029;-65
2021/07/26 01:13:31;;;;;;;7.72;6.82;;;;;;;19.43;74.25;98205.47;5033662;28;20037;-65
2021/07/26 01:15:57;;;;;;;7.40;6.80;;;;;;;19.38;74.65;98211.81;5028752;28;20457;-65
2021/07/26 01:18:30;;;;;;;9.00;7.25;;;;;;;19.42;74.16;98214.16;5030651;28;20099;-65
2021/07/26 01:21:02;;;;;;;7.75;7.15;;;;;;;19.30;74.82;98204.50;5030392;28;20096;-65
2021/07/26 01:23:30;;;;;;;7.40;6.80;;;;;;;19.24;74.67;98214.41;5032795;28;20029;-65
2021/07/26 01:25:56;;;;;;;7.88;7.13;;;;;;;19.13;75.51;98217.69;5032372;28;20064;-65
2021/07/26 01:28:24;;;;;;;7.82;6.95;;;;;;;19.07;76.02;98213.69;5027270;28;20328;-64
2021/07/26 01:30:49;;;;;;;7.95;7.10;;;;;;;18.99;76.32;98226.28;5029939;28;20029;-64
2021/07/26 01:33:16;;;;;;;6.38;5.88;;;;;;;19.10;75.04;98215.25;5027637;28;20037;-64
2021/07/26 01:35:42;;;;;;;6.22;5.72;;;;;;;19.03;75.24;98212.19;5030864;28;20040;-65
2021/07/26 01:38:09;;;;;;;7.60;5.75;;;;;;;18.98;74.99;98224.63;5028809;28;20029;-64
2021/07/26 01:40:38;;;;;;;6.65;5.57;;;;;;;18.97;75.02;98222.09;5025368;28;20056;-64
2021/07/26 01:43:09;;;;;;;7.03;6.43;;;;;;;18.89;75.04;98214.75;5026871;28;20086;-64
2021/07/26 01:45:36;;;;;;;6.90;6.30;;;;;;;18.84;75.23;98224.59;5027735;28;20037;-64
2021/07/26 01:48:09;;;;;;;6.63;6.03;;;;;;;18.74;75.99;98228.66;5029916;28;20128;-65
2021/07/26 01:50:39;;;;;;;6.85;6.13;;;;;;;18.67;76.44;98233.34;5025138;28;20026;-65
2021/07/26 01:53:05;;;;;;;6.97;6.47;;;;;;;18.54;76.89;98242.78;5025223;28;20061;-65
2021/07/26 01:55:30;;;;;;;6.07;5.68;;;;;;;18.48;77.46;98234.47;5027572;28;20043;-65
2021/07/26 01:57:57;;;;;;;7.03;6.07;;;;;;;18.55;76.92;98217.66;5033909;28;20405;-65
2021/07/26 02:00:22;;;;;;;6.32;5.75;;;;;;;18.62;76.18;98222.44;5029281;28;20256;-64
2021/07/26 02:02:48;;;;;;;7.03;6.32;;;;;;;18.54;76.48;98218.59;5034716;28;20036;-64
2021/07/26 02:05:13;;;;;;;7.15;6.30;;;;;;;18.42;77.57;98229.63;5027807;28;20032;-64
2021/07/26 02:07:39;;;;;;;6.70;6.10;;;;;;;18.39;77.53;98235.00;5030284;28;20037;-64
2021/07/26 02:10:05;;;;;;;6.60;5.90;;;;;;;18.36;77.41;98240.38;5028961;28;20041;-63
2021/07/26 02:12:30;;;;;;;6.57;5.97;;;;;;;18.31;78.25;98245.00;5028410;28;20033;-64
2021/07/26 02:14:55;;;;;;;6.75;6.03;;;;;;;18.25;78.24;98235.78;5030532;28;20036;-66
2021/07/26 02:17:21;;;;;;;5.55;5.15;;;;;;;18.19;78.44;98236.97;5029696;28;20029;-66
2021/07/26 02:19:46;;;;;;;6.80;6.20;;;;;;;18.18;78.25;98240.50;5027716;28;20029;-66
2021/07/26 02:22:12;;;;;;;6.63;5.60;;;;;;;18.21;78.58;98247.25;5029693;28;20036;-65
2021/07/26 02:24:37;;;;;;;6.55;5.95;;;;;;;18.19;78.22;98254.31;5025090;28;20047;-66
2021/07/26 02:27:04;;;;;;;6.40;5.78;;;;;;;18.17;78.14;98253.53;5029970;28;20036;-64
2021/07/26 02:29:30;;;;;;;6.65;5.97;;;;;;;18.12;78.22;98252.97;5026881;28;20337;-65
2021/07/26 02:31:55;;;;;;;5.68;5.28;;;;;;;18.07;79.04;98257.59;5028595;28;20037;-65
2021/07/26 02:34:21;;;;;;;5.97;5.47;;;;;;;18.04;79.52;98260.31;5026355;28;20017;-65
2021/07/26 02:36:47;;;;;;;7.43;6.82;;;;;;;18.01;80.28;98263.94;5028133;28;20036;-64
2021/07/26 02:39:12;;;;;;;6.70;6.20;;;;;;;18.01;80.17;98268.28;5028069;28;20566;-65
2021/07/26 02:41:38;;;;;;;6.53;6.03;;;;;;;17.97;80.07;98265.03;5029056;28;20034;-65
2021/07/26 02:44:03;;;;;;;7.65;6.75;;;;;;;17.96;80.49;98265.09;5028818;28;20385;-64
2021/07/26 02:46:29;;;;;;;6.80;6.20;;;;;;;17.92;81.11;98272.22;5029557;28;20086;-64
2021/07/26 02:48:54;;;;;;;7.50;6.85;;;;;;;17.93;81.04;98262.69;5029279;28;20665;-64
2021/07/26 02:51:20;;;;;;;7.47;6.68;;;;;;;17.92;80.80;98271.38;5031066;28;20022;-64
2021/07/26 02:53:45;;;;;;;6.93;6.32;;;;;;;17.91;81.12;98274.91;5032286;28;20306;-64
2021/07/26 02:56:11;;;;;;;7.45;6.70;;;;;;;17.94;81.53;98283.34;5028496;28;20033;-65
2021/07/26 02:58:38;;;;;;;7.07;6.38;;;;;;;17.94;81.55;98288.53;5028558;28;20017;-65
2021/07/26 03:01:04;;;;;;;8.73;6.32;;;;;;;17.89;81.60;98294.88;5027391;28;20025;-65
2021/07/26 03:03:30;;;;;;;7.13;6.50;;;;;;;17.82;81.84;98286.63;5027048;28;20051;-64
2021/07/26 03:05:55;;;;;;;6.80;6.20;;;;;;;17.78;82.34;98290.25;5026103;28;20434;-64
2021/07/26 03:08:21;;;;;;;6.30;5.80;;;;;;;17.69;82.57;98290.78;5029558;28;20320;-64
2021/07/26 03:10:46;;;;;;;7.25;6.65;;;;;;;17.65;83.03;98294.44;5031501;28;20090;-65
2021/07/26 03:13:11;;;;;;;8.15;7.28;;;;;;;17.60;83.24;98291.25;5027264;28;20039;-64
2021/07/26 03:15:37;;;;;;;7.45;6.75;;;;;;;17.57;83.41;98291.38;5028302;28;20029;-64
2021/07/26 03:18:03;;;;;;;7.55;6.90;;;;;;;17.53;83.38;98297.63;5031717;28;20057;-64
2021/07/26 03:20:28;;;;;;;7.47;6.78;;;;;;;17.53;83.16;98308.00;5029974;28;20024;-63
2021/07/26 03:23:10;;;;;;;7.78;7.07;;;;;;;17.61;82.90;98308.50;5030480;28;20022;-64
2021/07/26 03:25:39;;;;;;;8.20;7.40;;;;;;;17.56;82.62;98306.09;5027383;28;20046;-65
2021/07/26 03:28:05;;;;;;;7.57;6.85;;;;;;;17.51;82.71;98312.44;5027661;28;20594;-64
2021/07/26 03:30:30;;;;;;;8.95;8.05;;;;;;;17.55;82.39;98296.66;5030101;28;20044;-65
2021/07/26 03:32:56;;;;;;;8.00;7.22;;;;;;;17.53;82.18;98297.63;5024485;28;20079;-64
2021/07/26 03:35:24;;;;;;;7.18;6.57;;;;;;;17.53;82.21;98313.19;5023165;28;20659;-65
2021/07/26 03:37:51;;;;;;;8.82;7.65;;;;;;;17.47;82.09;98306.59;5026100;28;20115;-65
2021/07/26 03:40:18;;;;;;;9.57;7.97;;;;;;;17.49;82.43;98307.31;5029077;28;20021;-64
2021/07/26 03:42:44;;;;;;;7.32;6.68;;;;;;;17.52;81.95;98308.94;5028576;28;20033;-65
2021/07/26 03:45:11;;;;;;;9.05;8.15;;;;;;;17.59;81.98;98303.38;5029532;28;20041;-65
2021/07/26 03:47:38;;;;;;;8.35;7.63;;;;;;;17.51;82.68;98313.28;5026583;28;20064;-65
2021/07/26 03:50:05;;;;;;;9.23;7.85;;;;;;;17.52;82.79;98308.94;5030236;28;20127;-65
2021/07/26 03:52:50;;;;;;;8.43;7.63;;;;;;;17.49;83.13;98307.31;5031745;28;20034;-65
2021/07/26 03:55:20;;;;;;;8.70;7.90;;;;;;;17.42;83.76;98308.56;5028376;28;20042;-65
2021/07/26 03:57:48;;;;;;;9.25;8.35;;;;;;;17.55;83.14;98316.53;5030383;28;20034;-65
2021/07/26 04:00:16;;;;;;;9.05;7.28;;;;;;;17.55;83.37;98317.38;5026737;28;20048;-65
2021/07/26 04:02:42;;;;;;;9.38;7.82;;;;;;;17.60;83.75;98318.03;5026616;28;20029;-66
2021/07/26 04:05:15;;;;;;;8.48;7.65;;;;;;;17.69;83.82;98327.06;5028480;28;20026;-64
2021/07/26 04:07:44;;;;;;;7.82;7.15;;;;;;;17.75;83.56;98322.38;5028163;28;20270;-65
2021/07/26 04:10:10;;;;;;;9.13;8.27;;;;;;;17.90;83.58;98318.16;5031540;28;20056;-65
2021/07/26 04:12:36;;;;;;;8.25;7.55;;;;;;;18.02;83.15;98325.28;5031831;28;20037;-65
2021/07/26 04:15:08;;;;;;;8.35;7.65;;;;;;;18.14;82.50;98323.78;5031060;28;20287;-65
2021/07/26 04:17:34;;;;;;;8.10;7.30;;;;;;;18.29;81.66;98337.69;5028947;28;20029;-65
2021/07/26 04:19:59;;;;;;;8.40;7.00;;;;;;;18.46;80.71;98343.59;5031795;28;20029;-65
2021/07/26 04:22:25;;;;;;;8.95;8.05;;;;;;;18.64;79.97;98337.41;5033691;28;20040;-64
2021/07/26 04:24:50;;;;;;;9.30;8.40;;;;;;;18.80;79.63;98347.78;5029669;28;20406;-65
2021/07/26 04:27:15;;;;;;;7.95;7.35;;;;;;;18.90;78.84;98342.91;5031807;28;20028;-64
2021/07/26 04:29:41;;;;;;;7.75;7.05;;;;;;;19.03;78.43;98342.13;5027828;28;20032;-64
2021/07/26 04:32:10;;;;;;;7.13;6.45;;;;;;;19.15;78.32;98330.16;5029049;28;20122;-64
2021/07/26 04:34:36;;;;;;;6.95;6.30;;;;;;;19.28;77.92;98327.69;5028679;28;20053;-64
2021/07/26 04:37:01;;;;;;;7.63;6.93;;;;;;;19.41;76.20;98334.66;5034751;28;20029;-65
2021/07/26 04:39:27;;;;;;;8.85;7.97;;;;;;;19.55;76.07;98342.53;5032093;28;20041;-64
2021/07/26 04:41:52;;;;;;;7.53;6.85;;;;;;;19.63;76.08;98339.47;5029185;28;20562;-64
2021/07/26 04:44:18;;;;;;;8.70;6.80;;;;;;;19.72;76.28;98325.06;5026614;28;20029;-64
2021/07/26 04:46:43;;;;;;;7.95;7.15;;;;;;;19.86;75.69;98330.28;5032232;28;20029;-64
2021/07/26 04:49:08;;;;;;;7.05;6.45;;;;;;;19.90;75.38;98334.34;5026904;28;20029;-65
2021/07/26 04:51:34;;;;;;;9.77;6.80;;;;;;;19.95;75.64;98342.69;5029806;28;20040;-65
2021/07/26 04:53:59;;;;;;;8.35;7.20;;;;;;;20.08;75.32;98348.81;5029897;28;20030;-65
2021/07/26 04:56:24;;;;;;;7.93;6.10;;;;;;;20.16;75.03;98356.16;5032773;28;20034;-65
2021/07/26 04:58:50;;;;;;;6.35;5.75;;;;;;;20.11;74.36;98345.22;5029551;28;20663;-65
2021/07/26 05:01:15;;;;;;;8.60;6.57;;;;;;;20.19;73.91;98350.78;5032247;28;20033;-65
2021/07/26 05:03:41;;;;;;;6.20;5.70;;;;;;;20.39;73.00;98351.22;5035065;28;20573;-65
2021/07/26 05:06:07;;;;;;;7.47;6.72;;;;;;;20.54;71.95;98354.59;5036710;28;20032;-65
2021/07/26 05:08:32;;;;;;;8.20;6.25;;;;;;;20.67;71.71;98345.06;5031738;28;20025;-65
2021/07/26 05:10:58;;;;;;;7.93;6.65;;;;;;;20.71;72.49;98346.53;5035511;28;20052;-65
2021/07/26 05:13:23;;;;;;;6.60;5.97;;;;;;;20.73;72.17;98355.13;5028073;28;20029;-65
2021/07/26 05:15:48;;;;;;;6.82;6.30;;;;;;;20.89;71.79;98352.34;5027003;28;20039;-65
2021/07/26 05:18:14;;;;;;;7.47;6.85;;;;;;;21.01;70.57;98355.91;5028518;28;20278;-65
2021/07/26 05:20:39;;;;;;;7.60;6.80;;;;;;;20.96;70.41;98351.84;5029385;28;20044;-65
2021/07/26 05:23:09;;;;;;;7.82;6.90;;;;;;;21.14;70.23;98349.00;5031022;28;20036;-65
2021/07/26 05:25:35;;;;;;;8.48;7.18;;;;;;;21.18;70.22;98347.84;5031721;28;20041;-65
2021/07/26 05:28:00;;;;;;;7.72;6.95;;;;;;;21.28;70.22;98344.53;5029254;28;20416;-65
2021/07/26 05:30:26;;;;;;;7.50;6.78;;;;;;;21.40;70.34;98337.66;5031677;28;20036;-65
2021/07/26 05:32:53;;;;;;;7.47;6.78;;;;;;;21.51;69.95;98334.34;5031129;28;20043;-65
2021/07/26 05:35:19;;;;;;;6.75;6.15;;;;;;;21.52;68.65;98335.97;5027495;28;20176;-65
2021/07/26 05:37:44;;;;;;;7.03;6.32;;;;;;;21.66;68.81;98339.34;5030823;28;20184;-65
2021/07/26 05:40:10;;;;;;;8.63;7.05;;;;;;;21.66;68.63;98335.88;5031297;28;20034;-65
2021/07/26 05:42:35;;;;;;;6.95;6.25;;;;;;;21.99;67.48;98335.34;5028048;28;20635;-65
2021/07/26 05:45:03;;;;;;;6.20;5.70;;;;;;;22.21;66.79;98327.69;5025644;28;20338;-65
2021/07/26 05:47:29;;;;;;;7.15;6.45;;;;;;;22.38;65.89;98331.69;5028280;28;20253;-65
2021/07/26 05:49:54;;;;;;;6.97;6.30;;;;;;;22.59;65.30;98338.00;5030059;28;20032;-65
2021/07/26 05:52:20;;;;;;;8.05;7.03;;;;;;;22.84;64.84;98339.69;5033044;28;20121;-65
2021/07/26 05:54:45;;;;;;;9.02;8.10;;;;;;;22.96;64.03;98336.16;5027655;28;20236;-65
2021/07/26 05:57:13;;;;;;;10.65;9.25;;;;;;;22.83;64.07;98348.50;5029837;28;20030;-65
2021/07/26 05:59:39;;;;;;;10.18;9.18;;;;;;;22.69;64.08;98347.72;5026391;28;20024;-65
2021/07/26 06:02:04;;;;;;;8.30;7.50;;;;;;;22.88;64.06;98347.19;5033463;28;20423;-65
2021/07/26 06:04:30;;;;;;;11.80;10.77;;;;;;;22.78;64.78;98361.91;5027515;28;20030;-65
2021/07/26 06:06:57;;;;;;;9.70;8.80;;;;;;;22.92;64.60;98353.03;5026388;28;20309;-65
2021/07/26 06:09:23;;;;;;;9.48;8.57;;;;;;;22.92;64.79;98361.72;5029563;28;20043;-64
2021/07/26 06:11:49;;;;;;;9.63;8.65;;;;;;;22.98;64.72;98355.19;5028779;28;20379;-64
2021/07/26 06:14:15;;;;;;;9.90;8.50;;;;;;;23.04;64.86;98358.19;5029503;28;20060;-64
2021/07/26 06:16:42;;;;;;;10.52;9.07;;;;;;;23.14;64.83;98358.34;5024709;28;20287;-64
2021/07/26 06:19:09;;;;;;;12.15;10.95;;;;;;;22.99;64.47;98357.72;5025904;28;20068;-64
2021/07/26 06:21:55;;;;;;;10.88;9.75;;;;;;;23.08;65.81;98370.13;5028151;28;20124;-64
2021/07/26 06:24:22;;;;;;;9.93;9.02;;;;;;;23.19;65.74;98371.94;5028286;28;20057;-64
2021/07/26 06:26:49;;;;;;;12.27;11.00;;;;;;;23.32;65.34;98375.28;5030144;28;20029;-64
2021/07/26 06:29:14;;;;;;;12.10;10.93;;;;;;;23.52;64.16;98379.91;5027892;28;20060;-65
2021/07/26 06:31:42;;;;;;;11.52;10.43;;;;;;;23.75;63.75;98382.56;5028619;28;20082;-64
2021/07/26 06:34:08;;;;;;;15.45;13.95;;;;;;;23.82;63.53;98389.81;5029294;28;20399;-64
2021/07/26 06:36:36;;;;;;;14.88;13.40;;;;;;;23.80;64.94;98394.34;5026165;28;20048;-64
2021/07/26 06:39:01;;;;;;;16.98;15.18;;;;;;;23.61;64.43;98388.84;5027857;28;20030;-64
2021/07/26 06:41:26;;;;;;;17.27;15.05;;;;;;;23.74;63.95;98397.44;5026690;28;20086;-64
2021/07/26 06:43:53;;;;;;;17.95;16.13;;;;;;;23.72;64.37;98401.94;5023680;28;20067;-63
2021/07/26 06:46:19;;;;;;;18.83;16.73;;;;;;;23.68;64.58;98408.34;5027015;28;20245;-65
2021/07/26 06:48:44;;;;;;;17.48;15.77;;;;;;;23.78;64.64;98403.25;5028105;28;20044;-64
2021/07/26 06:51:10;;;;;;;18.38;16.48;;;;;;;23.75;63.66;98403.50;5028638;28;20033;-65
2021/07/26 06:53:35;;;;;;;20.73;15.15;;;;;;;23.78;62.79;98403.25;5025075;28;20030;-64
2021/07/26 06:56:05;;;;;;;15.25;13.95;;;;;;;23.92;63.93;98396.03;5024773;28;20240;-64
2021/07/26 06:58:31;;;;;;;17.65;15.88;;;;;;;24.06;63.07;98408.88;5026386;28;20034;-65
2021/07/26 07:01:05;;;;;;;19.75;17.75;;;;;;;24.09;62.48;98403.41;5028223;28;20033;-64
2021/07/26 07:03:31;;;;;;;20.95;18.75;;;;;;;23.97;63.24;98398.28;5027288;28;20379;-65
2021/07/26 07:06:08;;;;;;;18.25;16.35;;;;;;;24.10;63.50;98407.69;5027851;28;20037;-64
2021/07/26 07:08:33;;;;;;;17.73;15.90;;;;;;;24.29;61.91;98407.13;5028711;28;20064;-65
2021/07/26 07:11:07;;;;;;;16.20;14.80;;;;;;;24.34;61.21;98406.78;5028596;28;20037;-65
2021/07/26 07:13:34;;;;;;;14.95;13.55;;;;;;;24.36;62.02;98408.31;5027067;28;20315;-64
2021/07/26 07:16:00;;;;;;;13.82;12.63;;;;;;;24.40;61.90;98412.34;5028033;28;20030;-65
2021/07/26 07:18:25;;;;;;;14.73;13.43;;;;;;;24.51;61.46;98408.91;5029874;28;20116;-65
2021/07/26 07:20:51;;;;;;;15.35;13.55;;;;;;;24.69;60.54;98411.84;5027071;28;20091;-64
2021/07/26 07:23:16;;;;;;;14.90;13.40;;;;;;;24.81;60.50;98418.72;5030806;28;20022;-64
2021/07/26 07:25:42;;;;;;;14.27;12.85;;;;;;;24.85;60.78;98399.16;5027144;28;20046;-65
2021/07/26 07:28:07;;;;;;;15.25;13.63;;;;;;;24.93;60.56;98402.03;5028207;28;20025;-65
2021/07/26 07:30:33;;;;;;;14.90;13.68;;;;;;;25.18;59.73;98404.31;5031703;28;20116;-64
2021/07/26 07:33:01;;;;;;;14.00;12.60;;;;;;;25.36;58.34;98404.59;5027711;28;20279;-65
2021/07/26 07:35:28;;;;;;;14.30;12.93;;;;;;;25.38;57.97;98410.53;5029304;28;20103;-64
2021/07/26 07:37:53;;;;;;;16.08;14.30;;;;;;;25.53;57.37;98411.06;5029464;28;20026;-64
2021/07/26 07:40:19;;;;;;;17.25;15.65;;;;;;;25.46;58.58;98414.19;5028885;28;20029;-65
2021/07/26 07:42:45;;;;;;;16.17;14.73;;;;;;;25.58;57.97;98414.19;5025114;28;20069;-64
2021/07/26 07:45:10;;;;;;;15.52;14.00;;;;;;;25.78;57.78;98400.19;5030548;28;20029;-64
2021/07/26 07:47:38;;;;;;;16.65;14.95;;;;;;;25.68;59.37;98408.00;5032577;28;20086;-64
2021/07/26 07:50:05;;;;;;;17.85;16.23;;;;;;;25.59;57.77;98407.97;5030850;28;20032;-64
2021/07/26 07:52:30;;;;;;;15.05;13.45;;;;;;;25.70;57.48;98403.47;5030160;28;20030;-64
2021/07/26 07:54:56;;;;;;;18.27;14.05;;;;;;;25.76;57.46;98396.84;5034048;28;20120;-65
2021/07/26 07:57:23;;;;;;;18.83;16.55;;;;;;;25.85;56.17;98396.91;5031671;28;20395;-65
2021/07/26 07:59:48;;;;;;;17.33;15.63;;;;;;;25.96;55.41;98398.66;5033213;28;20033;-64
2021/07/26 08:02:14;;;;;;;18.42;16.40;;;;;;;26.13;56.14;98400.66;5034472;28;20342;-64
2021/07/26 08:04:40;;;;;;;18.67;16.98;;;;;;;26.03;56.78;98399.78;5031143;28;20402;-65
2021/07/26 08:07:07;;;;;;;17.88;15.60;;;;;;;26.25;56.30;98389.13;5030796;28;20329;-64
2021/07/26 08:09:32;;;;;;;14.73;13.50;;;;;;;26.23;55.45;98393.66;5032111;28;20051;-65
2021/07/26 08:11:58;;;;;;;12.73;11.63;;;;;;;26.44;55.22;98387.53;5029704;28;20382;-65
2021/07/26 08:14:24;;;;;;;14.10;12.88;;;;;;;26.40;56.21;98391.34;5028591;28;20462;-65
2021/07/26 08:16:49;;;;;;;12.07;10.98;;;;;;;26.12;57.28;98392.91;5031059;28;20406;-65
2021/07/26 08:19:15;;;;;;;12.07;10.90;;;;;;;26.36;56.45;98396.06;5032624;28;20026;-65
2021/07/26 08:21:40;;;;;;;9.10;8.30;;;;;;;26.62;55.96;98389.34;5030317;28;20040;-65
2021/07/26 08:24:05;;;;;;;8.15;7.45;;;;;;;26.79;55.68;98390.47;5033517;28;20095;-65
2021/07/26 08:26:31;;;;;;;8.40;7.72;;;;;;;26.80;54.47;98397.41;5028973;28;20291;-65
2021/07/26 08:28:56;;;;;;;7.85;7.15;;;;;;;27.03;53.26;98405.94;5033178;28;20033;-65
2021/07/26 08:31:22;;;;;;;7.78;7.15;;;;;;;27.08;53.77;98401.91;5029273;28;20091;-64
2021/07/26 08:33:47;;;;;;;7.07;6.45;;;;;;;27.17;53.58;98408.13;5034308;28;20040;-64
2021/07/26 08:36:13;;;;;;;7.97;7.15;;;;;;;27.30;52.66;98399.94;5030497;28;20029;-65
2021/07/26 08:38:38;;;;;;;9.38;8.48;;;;;;;27.09;51.84;98402.72;5031895;28;20032;-65
2021/07/26 08:41:04;;;;;;;7.40;6.70;;;;;;;27.23;53.04;98402.31;5034650;28;20026;-65
2021/07/26 08:43:29;;;;;;;7.43;6.70;;;;;;;27.37;52.42;98399.25;5030483;28;20391;-65
2021/07/26 08:45:55;;;;;;;7.10;6.50;;;;;;;27.45;51.28;98401.19;5027030;28;20342;-64
2021/07/26 08:48:24;;;;;;;8.30;7.40;;;;;;;27.61;50.71;98397.03;5026840;28;20116;-64
2021/07/26 08:50:50;;;;;;;7.78;7.18;;;;;;;27.67;51.37;98391.19;5030136;28;20069;-65
2021/07/26 08:53:20;;;;;;;7.50;6.80;;;;;;;27.73;51.00;98392.44;5032770;28;20029;-65
2021/07/26 08:55:48;;;;;;;6.97;6.47;;;;;;;27.97;50.51;98387.50;5026618;28;20091;-64
2021/07/26 08:58:15;;;;;;;7.25;6.65;;;;;;;28.06;50.42;98380.53;5032037;28;20291;-64
2021/07/26 09:00:42;;;;;;;7.63;7.10;;;;;;;27.95;50.99;98386.00;5033545;28;20440;-64
2021/07/26 09:03:08;;;;;;;6.25;5.85;;;;;;;28.18;50.91;98381.22;5033374;28;20030;-65
2021/07/26 09:05:33;;;;;;;7.35;6.65;;;;;;;28.27;48.77;98382.97;5032469;28;20111;-65
2021/07/26 09:08:01;;;;;;;6.43;5.88;;;;;;;28.31;47.88;98385.16;5029485;28;20654;-65
2021/07/26 09:10:27;;;;;;;5.63;5.22;;;;;;;28.20;47.21;98379.28;5029956;28;20124;-65
2021/07/26 09:12:54;;;;;;;6.35;5.85;;;;;;;28.25;49.04;98384.94;5029469;28;20105;-65
2021/07/26 09:15:32;;;;;;;5.85;5.38;;;;;;;28.54;47.53;98375.91;5031068;28;20105;-65
2021/07/26 09:18:09;;;;;;;4.45;4.15;;;;;;;28.73;45.52;98372.31;5032899;28;20033;-65
2021/07/26 09:20:36;;;;;;;5.60;5.07;;;;;;;28.75;46.67;98378.28;5030932;28;20031;-65
2021/07/26 09:23:15;;;;;;;5.22;4.85;;;;;;;28.95;45.16;98377.16;5031726;28;20095;-65
2021/07/26 09:25:42;;;;;;;5.68;5.20;;;;;;;28.94;44.14;98372.06;5029617;28;20788;-61
2021/07/26 09:28:09;;;;;;;5.78;5.22;;;;;;;29.02;45.30;98374.75;5031269;28;20033;-64
2021/07/26 09:30:39;;;;;;;5.40;5.00;;;;;;;29.01;44.39;98375.75;5035216;28;20038;-63
2021/07/26 09:33:27;;;;;;;6.00;5.18;;;;;;;29.01;43.48;98375.75;5028966;28;20038;-65
2021/07/26 09:36:03;;;;;;;6.50;5.60;;;;;;;28.99;42.97;98367.97;5030136;28;20418;-65
2021/07/26 09:38:28;;;;;;;5.85;5.45;;;;;;;29.04;45.48;98360.41;5029730;28;20033;-64
2021/07/26 09:40:54;;;;;;;6.00;5.57;;;;;;;29.02;44.24;98361.56;5031265;28;20025;-65
2021/07/26 09:43:24;;;;;;;5.50;5.10;;;;;;;29.32;44.62;98361.16;5030143;28;20060;-65
2021/07/26 09:45:54;;;;;;;5.05;4.65;;;;;;;29.31;45.37;98359.53;5029758;28;20270;-65
2021/07/26 09:48:22;;;;;;;5.40;5.00;;;;;;;29.37;42.42;98361.53;5032983;28;20028;-65
2021/07/26 09:50:50;;;;;;;5.30;4.88;;;;;;;29.60;43.23;98363.69;5032184;28;20037;-65
2021/07/26 09:53:23;;;;;;;5.97;5.47;;;;;;;29.59;42.57;98360.22;5029667;28;20045;-65
2021/07/26 09:55:53;;;;;;;6.05;5.55;;;;;;;29.45;43.23;98358.94;5030327;28;20131;-65
2021/07/26 09:58:34;;;;;;;5.78;5.28;;;;;;;29.59;42.26;98362.84;5025228;28;20065;-65
2021/07/26 10:01:00;;;;;;;6.20;5.65;;;;;;;29.64;43.50;98359.75;5024982;28;20033;-65
2021/07/26 10:03:27;;;;;;;6.25;5.32;;;;;;;29.65;45.00;98351.66;5030526;28;20044;-66
2021/07/26 10:05:54;;;;;;;5.38;4.80;;;;;;;29.80;41.82;98350.09;5029017;28;20051;-65
2021/07/26 10:08:21;;;;;;;6.57;5.53;;;;;;;29.52;42.24;98351.25;5033103;28;20034;-64
2021/07/26 10:10:47;;;;;;;6.40;5.80;;;;;;;29.36;43.29;98346.69;5026325;28;20033;-65
2021/07/26 10:13:13;;;;;;;5.88;5.38;;;;;;;29.26;43.92;98342.44;5029029;28;20033;-65
2021/07/26 10:15:38;;;;;;;6.07;5.50;;;;;;;29.46;44.54;98346.56;5028442;28;20367;-65
2021/07/26 10:18:06;;;;;;;5.75;5.25;;;;;;;29.75;44.59;98347.09;5026236;28;20169;-65
2021/07/26 10:20:41;;;;;;;5.93;5.45;;;;;;;29.71;44.84;98337.81;5030088;28;20279;-65
2021/07/26 10:23:09;;;;;;;6.72;6.07;;;;;;;29.82;44.96;98345.50;5020445;28;20171;-65
2021/07/26 10:25:43;;;;;;;7.07;6.38;;;;;;;29.67;43.80;98343.56;5026427;28;20062;-65
2021/07/26 10:28:31;;;;;;;5.88;5.47;;;;;;;29.47;44.10;98342.97;5029830;28;20140;-65
2021/07/26 10:30:57;;;;;;;5.95;5.45;;;;;;;29.64;44.79;98352.66;5032133;28;20040;-65
2021/07/26 10:33:23;;;;;;;6.55;5.88;;;;;;;29.79;43.79;98343.13;5027748;28;20350;-65
2021/07/26 10:35:49;;;;;;;6.55;5.75;;;;;;;29.98;43.71;98333.34;5029333;28;20030;-65
2021/07/26 10:38:44;;;;;;;6.25;5.85;;;;;;;30.20;43.46;98332.81;5030059;28;20423;-65
2021/07/26 10:41:10;;;;;;;7.50;5.20;;;;;;;30.19;44.90;98331.13;5030329;28;20041;-65
2021/07/26 10:43:55;;;;;;;6.88;6.25;;;;;;;30.24;44.31;98315.63;5025332;28;20065;-65
2021/07/26 10:46:21;;;;;;;8.75;7.15;;;;;;;30.25;43.10;98312.00;5030735;28;20037;-65
2021/07/26 10:48:51;;;;;;;8.32;6.30;;;;;;;30.30;42.60;98310.50;5029719;28;20034;-65
2021/07/26 10:51:36;;;;;;;6.57;6.05;;;;;;;30.50;41.66;98319.03;5033587;28;20378;-65
2021/07/26 10:54:02;;;;;;;6.47;5.93;;;;;;;30.19;42.28;98309.97;5026223;28;20076;-65
2021/07/26 10:56:28;;;;;;;6.95;6.32;;;;;;;30.40;42.13;98308.56;5023641;28;20141;-65
2021/07/26 10:59:02;;;;;;;6.90;6.32;;;;;;;30.47;40.64;98306.09;5026525;28;20033;-65
2021/07/26 11:01:27;;;;;;;7.93;6.10;;;;;;;30.56;40.98;98299.84;5026385;28;20029;-65
2021/07/26 11:03:56;;;;;;;7.18;6.72;;;;;;;30.73;41.25;98295.41;5027033;28;20087;-65
2021/07/26 11:06:48;;;;;;;6.60;6.10;;;;;;;30.83;41.39;98291.63;5028827;28;20112;-64
2021/07/26 11:09:19;;;;;;;7.93;7.10;;;;;;;30.49;41.84;98288.25;5031780;28;20030;-65
2021/07/26 11:11:46;;;;;;;6.28;5.78;;;;;;;30.87;41.63;98292.09;5024994;28;20055;-65
2021/07/26 11:14:13;;;;;;;22.88;7.90;;;;;;;30.80;42.19;98284.00;5025905;28;20035;-64
2021/07/26 11:16:51;;;;;;;6.68;6.07;;;;;;;30.78;40.95;98277.19;5025399;28;20045;-65
2021/07/26 11:19:35;;;;;;;6.63;6.00;;;;;;;31.10;40.34;98266.66;5027412;28;20163;-65
2021/07/26 11:22:06;;;;;;;6.25;5.75;;;;;;;30.89;40.09;98268.13;5025949;28;20080;-65
2021/07/26 11:24:44;;;;;;;23.60;6.70;;;;;;;31.01;40.74;98258.88;5029270;28;20046;-65
2021/07/26 11:27:14;;;;;;;12.77;5.82;;;;;;;30.75;40.48;98264.31;5027095;28;20044;-66
2021/07/26 11:29:58;;;;;;;16.33;6.75;;;;;;;30.97;40.97;98260.16;5026858;28;20422;-65
2021/07/26 11:32:26;;;;;;;6.83;6.33;;;;;;;31.02;40.72;98253.38;5026386;28;20430;-65